Time;durP1;ratioP1;P1;durP2;ratioP2;P2;SDS_P1;SDS_P2;PMS_P1;PMS_P2;Temp;Humidity;BMP_temperature;BMP_pressure;BME280_temperature;BME280_humidity;BME280_pressure;Samples;Min_cycle;Max_cycle;Signal;HPM_P1;HPM_P2
2021/06/14 00:00:15;;;;;;;5.07;3.33;;;;;;;15.67;60.17;97025.44;5012703;28;20053;-77
2021/06/14 00:02:43;;;;;;;6.65;3.72;;;;;;;15.61;60.36;97015.75;5013291;28;20046;-77
2021/06/14 00:05:13;;;;;;;8.15;3.70;;;;;;;15.55;60.72;97017.06;5012630;28;20045;-77
2021/06/14 00:07:40;;;;;;;8.52;4.05;;;;;;;15.52;61.44;97017.75;5012659;28;20049;-76
2021/06/14 00:10:10;;;;;;;7.55;3.60;;;;;;;15.48;61.20;97019.56;5012597;28;20492;-77
2021/06/14 00:12:37;;;;;;;7.40;3.65;;;;;;;15.45;61.41;97014.72;5012688;28;20052;-77
2021/06/14 00:15:06;;;;;;;6.93;3.45;;;;;;;15.42;61.67;97009.91;5012656;28;20045;-76
2021/06/14 00:17:32;;;;;;;7.63;3.90;;;;;;;15.36;61.67;97009.31;5012768;28;20057;-76
2021/06/14 00:19:59;;;;;;;8.25;3.85;;;;;;;15.34;61.90;97014.31;5012621;28;20129;-76
2021/06/14 00:22:25;;;;;;;8.07;3.97;;;;;;;15.31;61.68;97009.50;5011764;28;20042;-77
2021/06/14 00:24:52;;;;;;;5.30;3.20;;;;;;;15.28;61.95;97013.69;5012791;28;20089;-76
2021/06/14 00:27:20;;;;;;;11.30;4.30;;;;;;;15.26;61.06;97005.00;5012129;28;20049;-76
2021/06/14 00:29:46;;;;;;;5.47;3.80;;;;;;;15.22;62.51;97004.06;5012797;28;20042;-77
2021/06/14 00:32:12;;;;;;;8.27;4.60;;;;;;;15.20;62.32;97006.34;5011907;28;20042;-77
2021/06/14 00:34:39;;;;;;;8.15;3.95;;;;;;;15.15;62.58;97009.28;5012518;28;20038;-76
2021/06/14 00:37:05;;;;;;;10.15;3.85;;;;;;;15.17;62.27;97011.66;5011941;28;20049;-76
2021/06/14 00:39:32;;;;;;;6.88;3.40;;;;;;;15.16;60.99;97016.34;5012554;28;20050;-78
2021/06/14 00:41:58;;;;;;;7.68;3.92;;;;;;;15.13;61.19;97008.78;5012405;28;20050;-76
2021/06/14 00:44:26;;;;;;;7.35;3.65;;;;;;;15.07;61.04;97012.84;5011807;28;20046;-77
2021/06/14 00:46:53;;;;;;;9.05;4.15;;;;;;;14.99;61.82;97010.97;5012295;28;20062;-77
2021/06/14 00:49:19;;;;;;;10.25;4.07;;;;;;;14.93;62.20;97004.88;5011787;28;20041;-78
2021/06/14 00:51:46;;;;;;;7.03;3.63;;;;;;;14.93;61.54;97001.28;5012413;28;20041;-76
2021/06/14 00:54:13;;;;;;;9.00;4.13;;;;;;;14.90;61.17;97008.25;5011626;28;20511;-76
2021/06/14 00:56:39;;;;;;;9.02;4.30;;;;;;;14.86;61.77;97010.84;5012385;28;20116;-77
2021/06/14 00:59:06;;;;;;;10.95;4.38;;;;;;;14.83;62.30;97005.25;5011376;28;20517;-76
2021/06/14 01:01:34;;;;;;;8.43;4.18;;;;;;;14.85;62.14;97003.75;5012099;28;20042;-78
2021/06/14 01:04:00;;;;;;;8.73;4.00;;;;;;;14.83;61.78;96997.81;5012097;28;20042;-77
2021/06/14 01:06:27;;;;;;;6.25;4.03;;;;;;;14.80;62.20;96992.97;5011578;28;20503;-76
2021/06/14 01:08:54;;;;;;;8.25;3.72;;;;;;;14.80;62.18;96989.44;5012012;28;20046;-76
2021/06/14 01:11:30;;;;;;;7.18;3.75;;;;;;;14.80;61.44;96997.66;5011498;28;20437;-77
2021/06/14 01:14:03;;;;;;;11.65;4.30;;;;;;;14.75;61.61;96995.91;5011783;28;20385;-76
2021/06/14 01:16:37;;;;;;;10.17;4.20;;;;;;;14.72;61.79;96996.59;5011840;28;20038;-77
2021/06/14 01:19:10;;;;;;;7.57;3.70;;;;;;;14.68;61.52;96992.88;5011334;28;20288;-76
2021/06/14 01:21:44;;;;;;;9.13;4.00;;;;;;;14.66;62.23;96997.06;5011664;28;20046;-76
2021/06/14 01:24:31;;;;;;;;;;;;;;;14.64;62.27;96994.66;5011735;28;20046;-77
2021/06/14 01:27:02;;;;;;;9.13;4.35;;;;;;;14.55;63.96;96996.63;5011689;28;19929;-77
2021/06/14 01:29:31;;;;;;;8.00;3.97;;;;;;;14.52;63.27;96992.63;5011374;28;20511;-78
2021/06/14 01:31:59;;;;;;;10.43;4.78;;;;;;;14.55;62.84;96999.38;5011542;28;20492;-77
2021/06/14 01:34:29;;;;;;;8.38;4.47;;;;;;;14.52;62.95;96994.56;5010925;28;20042;-76
2021/06/14 01:37:00;;;;;;;12.18;4.63;;;;;;;14.51;63.15;96988.28;5011468;28;20060;-76
2021/06/14 01:39:28;;;;;;;8.73;4.35;;;;;;;14.52;62.32;96987.13;5010967;28;20046;-77
2021/06/14 01:41:57;;;;;;;11.60;4.47;;;;;;;14.50;62.88;96983.09;5011269;28;20045;-77
2021/06/14 01:44:25;;;;;;;9.00;4.57;;;;;;;14.46;62.09;96988.41;5009428;28;20046;-76
2021/06/14 01:46:57;;;;;;;9.25;4.22;;;;;;;14.39;62.22;96987.31;5011592;28;20042;-77
2021/06/14 01:49:25;;;;;;;9.55;4.57;;;;;;;14.33;62.18;96983.94;5011163;28;20053;-76
2021/06/14 01:51:52;;;;;;;7.88;4.03;;;;;;;14.28;62.38;96982.16;5011434;28;20500;-76
2021/06/14 01:54:18;;;;;;;8.85;4.40;;;;;;;14.24;62.90;96978.47;5010806;28;20046;-76
2021/06/14 01:56:47;;;;;;;10.23;4.57;;;;;;;14.20;62.89;96977.53;5011345;28;20046;-77
2021/06/14 01:59:16;;;;;;;9.70;4.75;;;;;;;14.18;64.03;96974.31;5010777;28;20041;-76
2021/06/14 02:01:45;;;;;;;9.73;4.70;;;;;;;14.17;63.43;96969.97;5011315;28;20049;-76
2021/06/14 02:04:13;;;;;;;9.52;4.47;;;;;;;14.19;63.55;96967.69;5010815;28;20042;-77
2021/06/14 02:06:45;;;;;;;10.35;4.03;;;;;;;14.21;63.81;96962.72;5011373;28;20050;-77
2021/06/14 02:09:15;;;;;;;9.83;4.43;;;;;;;14.22;62.93;96971.72;5010823;28;20053;-76
2021/06/14 02:11:44;;;;;;;7.57;4.10;;;;;;;14.22;63.05;96967.03;5011408;28;20042;-77
2021/06/14 02:14:13;;;;;;;9.13;4.57;;;;;;;14.19;63.31;96958.66;5010436;28;20042;-75
2021/06/14 02:16:42;;;;;;;11.20;4.78;;;;;;;14.20;63.63;96958.38;5011127;28;20601;-76
2021/06/14 02:19:10;;;;;;;9.55;4.10;;;;;;;14.19;63.20;96951.25;5010606;28;20038;-76
2021/06/14 02:21:38;;;;;;;9.00;4.30;;;;;;;14.22;62.58;96961.56;5010957;28;20046;-76
2021/06/14 02:24:05;;;;;;;9.55;4.40;;;;;;;14.21;62.33;96954.50;5010835;28;20049;-75
2021/06/14 02:26:31;;;;;;;9.40;4.30;;;;;;;14.24;61.96;96951.06;5008403;28;20046;-75
2021/06/14 02:28:58;;;;;;;9.38;4.20;;;;;;;14.29;61.80;96950.91;5010891;28;20046;-76
2021/06/14 02:31:25;;;;;;;11.10;5.25;;;;;;;14.27;61.90;96953.19;5008419;28;20045;-76
2021/06/14 02:33:51;;;;;;;9.68;4.25;;;;;;;14.30;62.14;96946.22;5006675;28;20046;-76
2021/06/14 02:36:20;;;;;;;9.68;4.20;;;;;;;14.32;62.17;96958.47;5010448;28;20126;-75
2021/06/14 02:38:48;;;;;;;6.28;3.75;;;;;;;14.34;61.52;96937.03;5010843;28;20046;-75
2021/06/14 02:41:15;;;;;;;8.90;4.13;;;;;;;14.36;61.03;96947.69;5010159;28;20046;-75
2021/06/14 02:43:42;;;;;;;7.10;3.90;;;;;;;14.35;60.83;96937.81;5010878;28;20389;-76
2021/06/14 02:46:12;;;;;;;7.30;4.07;;;;;;;14.33;61.31;96935.44;5010607;28;20057;-76
2021/06/14 02:48:42;;;;;;;9.60;4.20;;;;;;;14.33;60.95;96940.91;5010816;28;20046;-77
2021/06/14 02:51:09;;;;;;;9.05;4.75;;;;;;;14.30;61.24;96930.63;5010577;28;20125;-75
2021/06/14 02:53:38;;;;;;;9.75;4.05;;;;;;;14.29;61.27;96933.66;5010717;28;20045;-76
2021/06/14 02:56:09;;;;;;;8.00;4.07;;;;;;;14.27;60.56;96935.94;5010505;28;20081;-75
2021/06/14 02:58:39;;;;;;;11.07;4.57;;;;;;;14.26;61.05;96929.66;5014468;28;20077;-75
2021/06/14 03:01:07;;;;;;;8.40;3.92;;;;;;;14.27;61.50;96936.75;5013832;28;20049;-75
2021/06/14 03:03:36;;;;;;;9.05;4.18;;;;;;;14.27;60.40;96928.53;5006244;28;20050;-77
2021/06/14 03:06:02;;;;;;;7.60;4.18;;;;;;;14.23;60.97;96930.31;5013970;28;20038;-76
2021/06/14 03:08:31;;;;;;;9.55;4.28;;;;;;;14.23;61.32;96924.03;5014243;28;20046;-75
2021/06/14 03:10:59;;;;;;;9.52;4.20;;;;;;;14.18;60.63;96922.25;5014168;28;20520;-75
2021/06/14 03:13:27;;;;;;;10.85;4.43;;;;;;;14.21;60.96;96926.28;5013482;28;20053;-75
2021/06/14 03:15:53;;;;;;;8.52;4.28;;;;;;;14.16;60.13;96930.00;5014009;28;20072;-75
2021/06/14 03:18:24;;;;;;;10.18;4.40;;;;;;;14.12;60.25;96920.84;5013548;28;20046;-76
2021/06/14 03:20:54;;;;;;;12.80;4.82;;;;;;;14.10;60.52;96914.88;5014243;28;20052;-76
2021/06/14 03:23:21;;;;;;;9.65;4.50;;;;;;;14.11;60.93;96916.50;5013302;28;20054;-76
2021/06/14 03:25:47;;;;;;;14.80;4.85;;;;;;;14.05;59.97;96926.81;5013997;28;20042;-76
2021/06/14 03:28:28;;;;;;;9.07;4.25;;;;;;;14.03;60.66;96917.31;5013335;28;20068;-76
2021/06/14 03:30:56;;;;;;;10.00;4.28;;;;;;;14.04;61.58;96918.91;5013877;28;20056;-76
2021/06/14 03:33:24;;;;;;;9.27;4.60;;;;;;;14.05;61.19;96912.31;5012636;28;20053;-76
2021/06/14 03:35:54;;;;;;;9.82;4.60;;;;;;;14.08;61.52;96917.13;5013689;28;20054;-76
2021/06/14 03:38:21;;;;;;;12.95;4.30;;;;;;;14.09;61.57;96913.25;5013103;28;20042;-76
2021/06/14 03:40:47;;;;;;;10.13;4.43;;;;;;;14.07;61.09;96915.53;5013841;28;20046;-76
2021/06/14 03:43:14;;;;;;;11.85;4.65;;;;;;;14.08;61.63;96925.34;5013018;28;20053;-76
2021/06/14 03:45:40;;;;;;;8.10;4.30;;;;;;;14.13;60.39;96930.66;5013427;28;20408;-76
2021/06/14 03:48:09;;;;;;;10.10;5.07;;;;;;;14.11;60.69;96927.44;5013208;28;20042;-76
2021/06/14 03:50:36;;;;;;;13.20;5.03;;;;;;;14.12;61.33;96923.56;4995934;28;20042;-76
2021/06/14 03:53:03;;;;;;;9.00;4.93;;;;;;;14.11;60.94;96930.19;5012927;28;20052;-73
2021/06/14 03:55:30;;;;;;;9.88;4.57;;;;;;;14.09;61.75;96935.16;5013119;28;20054;-76
2021/06/14 03:57:56;;;;;;;8.93;4.80;;;;;;;14.07;61.62;96926.50;5013262;28;20045;-78
2021/06/14 04:00:23;;;;;;;15.35;5.47;;;;;;;14.06;61.60;96933.09;4994855;28;20049;-76
2021/06/14 04:02:50;;;;;;;11.45;5.07;;;;;;;14.07;61.39;96926.50;5004045;28;20049;-76
2021/06/14 04:05:18;;;;;;;12.70;5.47;;;;;;;14.08;61.47;96925.34;5012542;28;20618;-75
2021/06/14 04:07:44;;;;;;;14.98;5.97;;;;;;;14.03;61.21;96926.31;5012706;28;20046;-76
2021/06/14 04:10:12;;;;;;;15.85;6.65;;;;;;;14.03;61.10;96925.53;5011829;28;20049;-77
2021/06/14 04:12:38;;;;;;;9.43;5.45;;;;;;;13.99;60.72;96932.78;5012484;28;20049;-75
2021/06/14 04:15:07;;;;;;;11.90;5.90;;;;;;;13.99;61.43;96935.50;5012634;28;20057;-76
2021/06/14 04:17:33;;;;;;;10.48;5.60;;;;;;;14.07;61.53;96945.66;5012919;28;20467;-76
2021/06/14 04:20:00;;;;;;;14.57;8.68;;;;;;;14.11;61.33;96943.88;5012885;28;20046;-76
2021/06/14 04:22:28;;;;;;;12.80;7.47;;;;;;;14.13;62.04;96938.06;5012338;28;20046;-75
2021/06/14 04:24:55;;;;;;;13.25;6.40;;;;;;;14.13;63.17;96936.13;5012650;28;20489;-76
2021/06/14 04:27:21;;;;;;;13.63;6.45;;;;;;;14.15;62.73;96933.88;5011781;28;20519;-78
2021/06/14 04:29:48;;;;;;;14.75;6.25;;;;;;;14.18;62.34;96938.69;5012738;28;20097;-75
2021/06/14 04:32:14;;;;;;;15.13;6.15;;;;;;;14.22;62.49;96939.66;5011187;28;20050;-76
2021/06/14 04:34:41;;;;;;;10.52;5.93;;;;;;;14.21;62.63;96942.72;5012745;28;20038;-75
2021/06/14 04:37:07;;;;;;;14.43;6.45;;;;;;;14.20;61.86;96933.72;5011881;28;20053;-76
2021/06/14 04:39:36;;;;;;;12.88;5.57;;;;;;;14.21;62.17;96926.28;5012664;28;20050;-76
2021/06/14 04:42:03;;;;;;;10.45;5.38;;;;;;;14.24;62.78;96931.09;5011751;28;20056;-74
2021/06/14 04:44:29;;;;;;;10.00;4.95;;;;;;;14.23;62.18;96933.03;5012367;28;20041;-77
2021/06/14 04:46:56;;;;;;;12.48;6.07;;;;;;;14.27;62.38;96931.25;5012211;28;20050;-75
2021/06/14 04:49:22;;;;;;;19.95;6.05;;;;;;;14.33;63.48;96935.44;5012078;28;20064;-76
2021/06/14 04:51:49;;;;;;;10.15;5.22;;;;;;;14.40;62.61;96936.84;5012106;28;20049;-76
2021/06/14 04:54:15;;;;;;;11.38;6.07;;;;;;;14.40;61.73;96929.44;5011727;28;20072;-76
2021/06/14 04:56:43;;;;;;;12.23;5.78;;;;;;;14.45;62.54;96926.50;5011768;28;20113;-76
2021/06/14 04:59:09;;;;;;;12.80;5.60;;;;;;;14.45;60.85;96931.19;5003694;28;20049;-75
2021/06/14 05:01:36;;;;;;;15.32;6.65;;;;;;;14.44;61.51;96932.31;4993438;28;20045;-76
2021/06/14 05:04:03;;;;;;;14.30;6.97;;;;;;;14.44;61.09;96929.59;5010817;28;20048;-75
2021/06/14 05:06:30;;;;;;;11.70;5.30;;;;;;;14.46;61.83;96938.28;5011651;28;20038;-76
2021/06/14 05:08:57;;;;;;;13.35;5.40;;;;;;;14.50;62.18;96933.78;5012026;28;20045;-76
2021/06/14 05:11:23;;;;;;;12.63;5.85;;;;;;;14.58;62.05;96931.00;5011540;28;20046;-76
2021/06/14 05:13:51;;;;;;;12.07;5.43;;;;;;;14.62;61.70;96936.66;5011916;28;20054;-76
2021/06/14 05:16:17;;;;;;;12.95;5.63;;;;;;;14.65;62.30;96938.72;5011490;28;20046;-76
2021/06/14 05:18:44;;;;;;;12.45;5.53;;;;;;;14.72;62.26;96938.19;5011256;28;20041;-76
2021/06/14 05:21:11;;;;;;;12.77;5.75;;;;;;;14.71;61.48;96940.13;5010959;28;20065;-76
2021/06/14 05:23:38;;;;;;;12.35;5.90;;;;;;;14.68;60.21;96943.53;5011708;28;20053;-76
2021/06/14 05:26:04;;;;;;;11.68;5.53;;;;;;;14.65;60.39;96952.41;5011226;28;20048;-76
2021/06/14 05:28:31;;;;;;;13.75;6.57;;;;;;;14.60;59.92;96949.84;5011482;28;20385;-76
2021/06/14 05:30:59;;;;;;;13.48;5.85;;;;;;;14.65;60.62;96946.94;5011396;28;20096;-76
2021/06/14 05:33:25;;;;;;;8.43;5.35;;;;;;;14.64;59.95;96950.00;5010542;28;20085;-79
2021/06/14 05:35:52;;;;;;;14.18;5.70;;;;;;;14.65;61.33;96938.72;5011208;28;20511;-78
2021/06/14 05:38:18;;;;;;;15.02;6.65;;;;;;;14.67;60.02;96949.34;5010761;28;20057;-77
2021/06/14 05:40:45;;;;;;;14.07;5.47;;;;;;;14.60;60.22;96944.38;5011278;28;20443;-78
2021/06/14 05:43:11;;;;;;;8.52;5.47;;;;;;;14.63;60.71;96940.97;5010573;28;20520;-77
2021/06/14 05:45:38;;;;;;;12.32;5.82;;;;;;;14.70;60.67;96948.69;5011613;28;20049;-79
2021/06/14 05:48:07;;;;;;;13.40;5.97;;;;;;;14.84;61.39;96949.25;5011175;28;20052;-78
2021/06/14 05:50:33;;;;;;;14.65;5.78;;;;;;;14.91;61.01;96946.78;5011254;28;20053;-78
2021/06/14 05:53:00;;;;;;;11.60;5.40;;;;;;;14.94;60.21;96948.09;5011236;28;20546;-78
2021/06/14 05:55:26;;;;;;;12.00;5.40;;;;;;;15.02;60.91;96950.75;5010703;28;20543;-78
2021/06/14 05:57:53;;;;;;;9.48;5.10;;;;;;;15.08;60.69;96948.63;5026522;28;20096;-79
2021/06/14 06:00:20;;;;;;;15.63;5.70;;;;;;;15.11;60.39;96956.19;5010819;28;20120;-79
2021/06/14 06:02:47;;;;;;;12.15;6.38;;;;;;;15.17;59.75;96956.81;5010361;28;20041;-78
2021/06/14 06:05:15;;;;;;;13.13;5.85;;;;;;;15.25;59.98;96943.03;5010750;28;20052;-78
2021/06/14 06:07:42;;;;;;;12.52;5.95;;;;;;;15.32;59.54;96948.78;5011018;28;20045;-78
2021/06/14 06:10:11;;;;;;;11.75;5.75;;;;;;;15.43;60.79;96949.19;5010675;28;20421;-76
2021/06/14 06:12:38;;;;;;;14.13;5.72;;;;;;;15.47;59.52;96952.09;5011116;28;20510;-76
2021/06/14 06:15:05;;;;;;;12.75;5.75;;;;;;;15.49;58.24;96952.53;5010556;28;20528;-76
2021/06/14 06:17:32;;;;;;;9.50;4.90;;;;;;;15.57;58.64;96949.72;5011530;28;20042;-76
2021/06/14 06:19:58;;;;;;;10.10;5.45;;;;;;;15.65;57.97;96956.31;5011120;28;20053;-76
2021/06/14 06:22:26;;;;;;;10.52;5.60;;;;;;;15.72;58.51;96956.59;5010599;28;20046;-76
2021/06/14 06:24:53;;;;;;;11.38;5.20;;;;;;;15.87;59.72;96953.22;5011127;28;20038;-77
2021/06/14 06:27:19;;;;;;;10.27;4.80;;;;;;;15.99;60.44;96957.16;5010487;28;20045;-78
2021/06/14 06:29:47;;;;;;;10.80;5.40;;;;;;;15.98;57.42;96969.28;5011121;28;20050;-77
2021/06/14 06:32:13;;;;;;;13.00;5.60;;;;;;;16.10;58.69;96958.31;5012122;28;20041;-78
2021/06/14 06:34:39;;;;;;;10.63;5.00;;;;;;;16.12;57.03;96956.81;5014984;28;20578;-76
2021/06/14 06:37:06;;;;;;;16.25;5.78;;;;;;;16.18;57.20;96951.91;5014255;28;20045;-76
2021/06/14 06:39:34;;;;;;;13.15;5.10;;;;;;;16.23;57.30;96945.41;5014969;28;20042;-76
2021/06/14 06:42:01;;;;;;;9.57;4.70;;;;;;;16.31;56.82;96944.53;5014635;28;20046;-78
2021/06/14 06:44:29;;;;;;;9.57;4.53;;;;;;;16.42;56.95;96946.47;5014632;28;20038;-76
2021/06/14 06:46:56;;;;;;;11.18;5.07;;;;;;;16.52;56.22;96947.19;5014739;28;20124;-76
2021/06/14 06:49:22;;;;;;;9.23;4.50;;;;;;;16.58;55.74;96938.38;5014110;28;20624;-77
2021/06/14 06:51:49;;;;;;;14.02;5.30;;;;;;;16.65;54.83;96929.53;5014504;28;20042;-77
2021/06/14 06:54:15;;;;;;;9.63;4.72;;;;;;;16.75;55.97;96931.06;5014034;28;20069;-76
2021/06/14 06:56:45;;;;;;;10.23;4.97;;;;;;;16.86;56.70;96932.22;5014413;28;20509;-76
2021/06/14 06:59:12;;;;;;;9.73;4.70;;;;;;;16.92;55.13;96934.41;5013842;28;20488;-77
2021/06/14 07:01:39;;;;;;;12.75;4.57;;;;;;;16.99;54.05;96930.28;5014439;28;20049;-76
2021/06/14 07:04:06;;;;;;;13.93;4.65;;;;;;;17.02;55.12;96932.31;5013787;28;20041;-75
2021/06/14 07:06:33;;;;;;;11.68;4.97;;;;;;;17.11;55.20;96933.00;5014261;28;20120;-76
2021/06/14 07:09:00;;;;;;;13.43;4.78;;;;;;;17.17;53.37;96931.59;5014348;28;20046;-76
2021/06/14 07:11:28;;;;;;;7.50;4.90;;;;;;;17.21;53.86;96930.56;5013650;28;20042;-77
2021/06/14 07:13:56;;;;;;;14.57;5.25;;;;;;;17.27;54.50;96928.38;5014176;28;20042;-76
2021/06/14 07:16:23;;;;;;;11.27;4.68;;;;;;;17.39;53.84;96930.31;5013297;28;20049;-78
2021/06/14 07:18:51;;;;;;;10.35;4.40;;;;;;;17.47;53.30;96935.66;5014374;28;20042;-76
2021/06/14 07:21:17;;;;;;;9.73;4.47;;;;;;;17.55;52.76;96935.91;5013359;28;20409;-77
2021/06/14 07:23:44;;;;;;;13.43;4.68;;;;;;;17.64;52.83;96939.28;5014095;28;20054;-76
2021/06/14 07:26:11;;;;;;;8.65;3.85;;;;;;;17.72;52.85;96930.09;5013361;28;20638;-78
2021/06/14 07:28:38;;;;;;;10.93;4.75;;;;;;;17.83;53.03;96928.47;5014042;28;20050;-76
2021/06/14 07:31:06;;;;;;;11.43;4.30;;;;;;;17.92;52.63;96931.88;5013230;28;20046;-76
2021/06/14 07:33:35;;;;;;;10.45;4.22;;;;;;;17.95;49.84;96914.63;5013823;28;20124;-77
2021/06/14 07:36:01;;;;;;;7.65;3.95;;;;;;;17.97;51.03;96915.09;5013734;28;20041;-76
2021/06/14 07:38:28;;;;;;;9.93;4.03;;;;;;;18.07;51.76;96921.25;5013488;28;20788;-77
2021/06/14 07:40:54;;;;;;;10.13;3.70;;;;;;;18.17;50.08;96917.97;5013811;28;20049;-77
2021/06/14 07:43:21;;;;;;;8.93;4.10;;;;;;;18.23;49.50;96916.56;5012394;28;20057;-77
2021/06/14 07:45:49;;;;;;;11.30;4.15;;;;;;;18.33;49.95;96927.06;5013702;28;20037;-76
2021/06/14 07:48:17;;;;;;;7.68;4.05;;;;;;;18.45;51.27;96918.72;5013141;28;20049;-76
2021/06/14 07:50:45;;;;;;;7.30;3.72;;;;;;;18.57;49.96;96915.06;5013754;28;20054;-76
2021/06/14 07:53:12;;;;;;;8.68;3.92;;;;;;;18.63;49.48;96915.59;5012954;28;20046;-76
2021/06/14 07:55:39;;;;;;;11.05;3.78;;;;;;;18.75;49.78;96916.34;5013313;28;20049;-77
2021/06/14 07:58:07;;;;;;;6.63;3.53;;;;;;;18.84;47.99;96923.59;5013018;28;20041;-76
2021/06/14 08:00:33;;;;;;;10.82;4.13;;;;;;;18.95;48.17;96919.97;4994109;28;20046;-75
2021/06/14 08:03:00;;;;;;;10.75;3.97;;;;;;;19.04;48.81;96917.78;5003862;28;20053;-77
2021/06/14 08:05:28;;;;;;;7.40;3.90;;;;;;;19.18;47.02;96922.84;5012623;28;20065;-77
2021/06/14 08:07:54;;;;;;;8.65;3.60;;;;;;;19.32;49.85;96921.56;5013187;28;20042;-77
2021/06/14 08:10:22;;;;;;;9.77;3.90;;;;;;;19.45;47.44;96914.75;5012556;28;20057;-76
2021/06/14 08:12:50;;;;;;;8.38;3.67;;;;;;;19.75;50.86;96917.78;5012688;28;20046;-77
2021/06/14 08:15:18;;;;;;;7.82;3.30;;;;;;;20.75;44.75;96914.09;5012220;28;20054;-77
2021/06/14 08:17:45;;;;;;;8.18;3.25;;;;;;;22.37;41.05;96913.09;5012769;28;20046;-77
2021/06/14 08:20:18;;;;;;;6.80;3.22;;;;;;;23.65;37.25;96905.75;5012475;28;20125;-77
2021/06/14 08:25:30;;;;;;;8.45;2.75;;;;;;;25.87;34.06;96911.47;5012433;28;20049;-76
2021/06/14 08:27:56;;;;;;;7.28;3.00;;;;;;;26.51;31.51;96900.75;5012819;28;20045;-76
2021/06/14 08:30:25;;;;;;;5.45;2.78;;;;;;;27.23;32.93;96892.59;4994660;28;20053;-76
2021/06/14 08:32:52;;;;;;;10.45;3.15;;;;;;;27.79;31.09;96890.44;5002450;28;20053;-76
2021/06/14 08:35:22;;;;;;;9.07;3.60;;;;;;;28.05;28.27;96890.91;5011914;28;20050;-77
2021/06/14 08:37:52;;;;;;;10.80;3.60;;;;;;;28.09;29.47;96894.44;5012315;28;20042;-77
2021/06/14 08:40:20;;;;;;;9.60;3.33;;;;;;;28.32;30.23;96883.31;5012020;28;20053;-77
2021/06/14 08:42:47;;;;;;;6.40;3.05;;;;;;;28.44;28.89;96883.97;5012188;28;20050;-77
2021/06/14 08:45:14;;;;;;;8.05;3.30;;;;;;;28.44;29.83;96875.56;5011965;28;20519;-76
2021/06/14 08:47:43;;;;;;;9.20;3.50;;;;;;;28.42;29.09;96880.81;5012298;28;20046;-76
2021/06/14 08:50:13;;;;;;;8.13;3.22;;;;;;;28.42;30.96;96878.00;5011712;28;20046;-77
2021/06/14 08:52:40;;;;;;;10.50;3.05;;;;;;;28.13;27.67;96875.56;5012189;28;20041;-76
2021/06/14 08:55:12;;;;;;;9.23;2.92;;;;;;;27.94;28.68;96879.84;5011109;28;20053;-76
2021/06/14 08:57:38;;;;;;;8.75;3.50;;;;;;;27.39;29.91;96866.88;5012248;28;20042;-77
2021/06/14 09:00:07;;;;;;;8.05;3.33;;;;;;;26.94;30.74;96868.91;4996510;28;20038;-78
2021/06/14 09:02:33;;;;;;;7.05;3.15;;;;;;;26.50;30.66;96867.66;4999396;28;20050;-77
2021/06/14 09:05:00;;;;;;;10.25;3.47;;;;;;;26.12;31.70;96863.91;5011934;28;20042;-77
2021/06/14 09:07:26;;;;;;;8.88;3.53;;;;;;;26.01;33.41;96858.38;5011383;28;20042;-78
2021/06/14 09:09:53;;;;;;;9.65;3.45;;;;;;;26.01;33.81;96863.97;5011627;28;20519;-78
2021/06/14 09:12:21;;;;;;;9.90;3.88;;;;;;;26.11;36.55;96860.31;5011377;28;20046;-78
2021/06/14 09:14:48;;;;;;;11.43;3.65;;;;;;;26.16;35.46;96851.53;5011825;28;20053;-77
2021/06/14 09:17:17;;;;;;;9.30;3.60;;;;;;;26.01;34.82;96855.59;5010815;28;20100;-78
2021/06/14 09:19:50;;;;;;;8.25;3.00;;;;;;;25.89;34.01;96861.63;5011730;28;20042;-78
2021/06/14 09:22:20;;;;;;;9.20;3.30;;;;;;;25.65;37.36;96869.69;5011148;28;20042;-78
2021/06/14 09:24:55;;;;;;;15.02;4.25;;;;;;;25.56;34.70;96866.53;5011645;28;20046;-77
2021/06/14 09:27:32;;;;;;;10.68;3.40;;;;;;;25.50;34.57;96863.34;5011049;28;20401;-78
2021/06/14 09:30:10;;;;;;;8.48;3.45;;;;;;;25.39;37.63;96861.81;4997271;28;20050;-78
2021/06/14 09:32:36;;;;;;;9.88;3.50;;;;;;;25.20;35.91;96854.69;4999069;28;20046;-78
2021/06/14 09:35:03;;;;;;;8.85;2.83;;;;;;;25.11;34.00;96855.13;5011223;28;20058;-79
2021/06/14 09:37:30;;;;;;;9.60;3.30;;;;;;;25.14;34.63;96850.72;5011172;28;20512;-78
2021/06/14 09:39:58;;;;;;;6.43;3.00;;;;;;;25.18;34.08;96849.50;5011407;28;20049;-78
2021/06/14 09:42:27;;;;;;;10.23;3.10;;;;;;;25.19;37.61;96848.31;5010733;28;20057;-78
2021/06/14 09:45:04;;;;;;;7.82;3.10;;;;;;;25.13;32.93;96849.94;5011345;28;20049;-78
2021/06/14 09:47:31;;;;;;;8.88;3.13;;;;;;;25.09;35.60;96849.13;5010857;28;20044;-78
2021/06/14 09:50:03;;;;;;;9.18;2.75;;;;;;;25.07;36.96;96845.16;5011312;28;20512;-78
2021/06/14 09:52:30;;;;;;;7.15;2.78;;;;;;;25.19;37.04;96841.94;5011048;28;20092;-78
2021/06/14 09:55:07;;;;;;;12.77;3.38;;;;;;;25.22;36.78;96839.16;5011109;28;20042;-79
2021/06/14 09:57:34;;;;;;;6.65;3.15;;;;;;;25.20;34.20;96847.09;5011144;28;20045;-77
2021/06/14 10:00:10;;;;;;;9.18;3.38;;;;;;;25.18;34.82;96841.16;4996630;28;20489;-78
2021/06/14 10:02:36;;;;;;;8.38;3.58;;;;;;;25.18;31.26;96843.94;4998486;28;20038;-78
2021/06/14 10:05:16;;;;;;;10.13;3.50;;;;;;;25.13;34.77;96836.00;5011122;28;20054;-77
2021/06/14 10:07:47;;;;;;;9.02;3.03;;;;;;;25.23;34.99;96840.75;5015384;28;20064;-78
2021/06/14 10:10:19;;;;;;;7.47;3.15;;;;;;;25.31;37.50;96835.94;5014785;28;20066;-78
2021/06/14 10:12:50;;;;;;;8.38;3.35;;;;;;;25.28;32.23;96833.97;5015348;28;20450;-78
2021/06/14 10:15:28;;;;;;;7.60;2.90;;;;;;;24.96;32.35;96818.09;5014684;28;20046;-77
2021/06/14 10:17:55;;;;;;;8.80;3.50;;;;;;;24.96;36.45;96826.44;5015046;28;20057;-79
2021/06/14 10:20:25;;;;;;;7.95;2.80;;;;;;;24.93;35.58;96829.22;5014525;28;20050;-77
2021/06/14 10:22:53;;;;;;;9.38;3.00;;;;;;;25.02;33.04;96821.25;5015288;28;20102;-78
2021/06/14 10:25:21;;;;;;;8.93;3.08;;;;;;;25.11;33.38;96824.47;5014578;28;20524;-78
2021/06/14 10:27:48;;;;;;;7.15;3.13;;;;;;;25.19;32.90;96819.66;5015029;28;20037;-77
2021/06/14 10:30:19;;;;;;;10.00;3.17;;;;;;;25.25;36.40;96813.25;5014175;28;20041;-76
2021/06/14 10:32:46;;;;;;;9.23;4.05;;;;;;;25.14;34.87;96806.91;5014900;28;20050;-77
2021/06/14 10:35:15;;;;;;;8.70;3.08;;;;;;;25.23;35.07;96804.50;5014700;28;20046;-77
2021/06/14 10:37:45;;;;;;;7.50;3.10;;;;;;;25.29;36.81;96813.25;5014902;28;20038;-77
2021/06/14 10:40:14;;;;;;;11.13;3.25;;;;;;;25.33;32.52;96804.88;5014104;28;20050;-77
2021/06/14 10:42:41;;;;;;;8.15;3.17;;;;;;;25.39;35.02;96803.25;5014521;28;20045;-78
2021/06/14 10:45:09;;;;;;;9.68;2.90;;;;;;;25.45;34.02;96793.28;5014281;28;20052;-76
2021/06/14 10:47:37;;;;;;;7.78;2.58;;;;;;;25.47;34.61;96796.44;5014651;28;20046;-77
2021/06/14 10:50:04;;;;;;;7.82;2.88;;;;;;;25.46;34.56;96789.28;5014153;28;20050;-78
2021/06/14 10:52:38;;;;;;;9.02;2.90;;;;;;;25.55;33.99;96786.84;5014529;28;20042;-77
2021/06/14 10:55:09;;;;;;;6.72;2.75;;;;;;;25.63;35.24;96782.84;5013981;28;20074;-77
2021/06/14 10:57:36;;;;;;;9.50;3.15;;;;;;;25.72;35.55;96785.16;5014577;28;20092;-78
2021/06/14 11:00:04;;;;;;;9.48;2.70;;;;;;;25.75;36.85;96779.63;5013549;28;20053;-77
2021/06/14 11:02:33;;;;;;;7.35;2.83;;;;;;;25.79;33.22;96776.00;5014279;28;20046;-77
2021/06/14 11:05:06;;;;;;;7.88;2.70;;;;;;;25.73;33.49;96773.59;5014249;28;20529;-77
2021/06/14 11:07:33;;;;;;;10.50;3.13;;;;;;;25.55;32.03;96767.34;5014266;28;20042;-77
2021/06/14 11:09:59;;;;;;;9.45;3.17;;;;;;;25.46;32.76;96773.34;5014189;28;20512;-77
2021/06/14 11:12:27;;;;;;;8.32;2.53;;;;;;;25.47;34.20;96762.97;5013721;28;20050;-77
2021/06/14 11:14:55;;;;;;;6.72;2.30;;;;;;;25.52;34.91;96765.34;5014072;28;20038;-77
2021/06/14 11:17:23;;;;;;;6.35;2.42;;;;;;;25.62;32.34;96764.50;5012489;28;20053;-77
2021/06/14 11:19:52;;;;;;;10.13;2.90;;;;;;;25.35;32.58;96763.44;5013905;28;20058;-76
2021/06/14 11:22:20;;;;;;;7.40;2.63;;;;;;;25.32;32.54;96761.47;5013473;28;20041;-77
2021/06/14 11:24:48;;;;;;;6.30;2.63;;;;;;;25.32;32.93;96758.69;5013638;28;20421;-77
2021/06/14 11:27:15;;;;;;;9.68;3.53;;;;;;;25.44;35.66;96747.09;5013395;28;20100;-77
2021/06/14 11:29:44;;;;;;;7.47;2.45;;;;;;;25.45;34.04;96743.09;5013802;28;20435;-77
2021/06/14 11:32:17;;;;;;;6.47;2.63;;;;;;;25.45;31.84;96734.72;5013053;28;20421;-77
2021/06/14 11:34:44;;;;;;;;;;;;;;;25.34;32.57;96736.78;5014173;28;20412;-77
2021/06/14 11:37:12;;;;;;;7.68;2.30;;;;;;;25.24;32.55;96732.84;5013235;28;19922;-77